createdAt,value
2018-12-30T00:00:28.447Z,12.37
2018-12-30T00:03:18.531Z,12.33
2018-12-30T00:06:09.255Z,14.17
2018-12-30T00:08:59.815Z,11.80
2018-12-30T00:11:50.329Z,14.33
2018-12-30T00:14:40.477Z,12.40
2018-12-30T00:17:30.943Z,10.93
2018-12-30T00:20:22.627Z,11.30
2018-12-30T00:23:12.914Z,13.00
2018-12-30T00:26:03.306Z,9.90
2018-12-30T00:28:53.585Z,9.80
2018-12-30T00:31:43.774Z,12.60
2018-12-30T00:34:33.879Z,11.63
2018-12-30T00:37:24.275Z,11.13
2018-12-30T00:40:14.352Z,11.23
2018-12-30T00:43:05.033Z,10.60
2018-12-30T00:45:55.774Z,10.17
2018-12-30T00:48:45.967Z,10.10
2018-12-30T00:51:36.410Z,9.63
2018-12-30T00:54:26.952Z,8.77
2018-12-30T00:57:17.479Z,9.10
2018-12-30T01:00:07.946Z,9.17
2018-12-30T01:02:58.263Z,8.63
2018-12-30T01:05:48.643Z,8.60
2018-12-30T01:08:40.183Z,7.83
2018-12-30T01:11:30.806Z,7.60
2018-12-30T01:14:21.150Z,10.03
2018-12-30T01:17:11.607Z,8.60
2018-12-30T01:20:01.813Z,11.80
2018-12-30T01:22:52.997Z,5.53
2018-12-30T01:25:43.935Z,11.67
2018-12-30T01:28:34.482Z,8.23
2018-12-30T01:31:24.711Z,7.27
2018-12-30T01:34:15.186Z,7.47
2018-12-30T01:37:05.574Z,9.27
2018-12-30T01:39:55.623Z,8.70
2018-12-30T01:42:46.190Z,8.00
2018-12-30T01:45:36.574Z,7.40
2018-12-30T01:48:26.603Z,6.13
2018-12-30T01:51:17.079Z,3.33
2018-12-30T01:54:07.262Z,4.33
2018-12-30T01:56:57.574Z,6.30
2018-12-30T01:59:47.818Z,5.80
2018-12-30T02:02:38.310Z,5.13
2018-12-30T02:05:28.370Z,5.40
2018-12-30T02:08:18.542Z,7.17
2018-12-30T02:11:08.851Z,7.40
2018-12-30T02:13:58.987Z,8.27
2018-12-30T02:16:49.142Z,8.40
2018-12-30T02:19:40.203Z,6.00
2018-12-30T02:22:30.435Z,5.70
2018-12-30T02:25:20.543Z,8.70
2018-12-30T02:28:10.870Z,10.73
2018-12-30T02:31:00.941Z,10.67
2018-12-30T02:33:50.980Z,9.27
2018-12-30T02:36:41.392Z,9.93
2018-12-30T02:39:31.665Z,8.97
2018-12-30T02:42:22.082Z,9.77
2018-12-30T02:45:12.615Z,9.93
2018-12-30T02:48:03.020Z,9.10
2018-12-30T02:50:53.479Z,9.50
2018-12-30T02:53:43.875Z,9.30
2018-12-30T02:56:34.107Z,7.33
2018-12-30T02:59:24.421Z,8.83
2018-12-30T03:02:14.785Z,8.77
2018-12-30T03:05:04.925Z,9.67
2018-12-30T03:07:55.619Z,9.37
2018-12-30T03:10:45.946Z,7.37
2018-12-30T03:13:36.300Z,7.60
2018-12-30T03:16:27.071Z,7.80
2018-12-30T03:19:17.610Z,8.27
2018-12-30T03:22:07.844Z,12.10
2018-12-30T03:24:58.212Z,5.63
2018-12-30T03:27:48.268Z,7.47
2018-12-30T03:30:38.256Z,6.70
2018-12-30T03:33:28.787Z,7.53
2018-12-30T03:36:19.675Z,6.90
2018-12-30T03:39:09.931Z,6.50
2018-12-30T03:42:00.290Z,5.43
2018-12-30T03:44:50.643Z,8.33
2018-12-30T03:47:40.902Z,5.90
2018-12-30T03:50:31.463Z,10.40
2018-12-30T03:53:22.482Z,7.00
2018-12-30T03:56:12.791Z,11.00
2018-12-30T03:59:03.136Z,10.83
2018-12-30T04:01:53.449Z,16.50
2018-12-30T04:04:43.775Z,13.90
2018-12-30T04:07:33.769Z,16.53
2018-12-30T04:10:24.340Z,17.47
2018-12-30T04:13:14.402Z,18.77
2018-12-30T04:16:04.668Z,15.10
2018-12-30T04:18:55.070Z,10.83
2018-12-30T04:21:45.279Z,7.70
2018-12-30T04:24:35.596Z,7.27
2018-12-30T04:27:25.702Z,7.73
2018-12-30T04:30:15.779Z,10.37
2018-12-30T04:33:05.764Z,14.50
2018-12-30T04:35:55.835Z,9.77
2018-12-30T04:38:46.563Z,8.30
2018-12-30T04:41:36.959Z,9.37
2018-12-30T04:44:27.292Z,10.27
2018-12-30T04:47:17.480Z,9.90
2018-12-30T04:50:07.931Z,9.90
2018-12-30T04:52:58.273Z,11.30
2018-12-30T04:55:48.591Z,10.03
2018-12-30T04:58:38.854Z,8.90
2018-12-30T05:01:29.023Z,7.77
2018-12-30T05:04:19.370Z,8.50
2018-12-30T05:07:09.754Z,9.10
2018-12-30T05:10:00.235Z,9.07
2018-12-30T05:12:50.723Z,11.93
2018-12-30T05:15:41.332Z,9.17
2018-12-30T05:18:31.813Z,8.87
2018-12-30T05:21:21.844Z,8.13
2018-12-30T05:24:11.983Z,8.47
2018-12-30T05:27:02.270Z,9.53
2018-12-30T05:29:52.587Z,10.50
2018-12-30T05:32:42.940Z,11.03
2018-12-30T05:35:33.114Z,9.57
2018-12-30T05:38:23.221Z,9.60
2018-12-30T05:41:13.715Z,10.67
2018-12-30T05:44:04.118Z,14.93
2018-12-30T05:46:54.278Z,11.80
2018-12-30T05:49:44.343Z,13.70
2018-12-30T05:52:41.602Z,12.43
2018-12-30T05:55:26.290Z,10.50
2018-12-30T05:58:16.418Z,11.03
2018-12-30T06:01:06.814Z,12.97
2018-12-30T06:03:56.936Z,11.57
2018-12-30T06:06:46.986Z,8.97
2018-12-30T06:09:37.451Z,8.47
2018-12-30T06:12:28.067Z,9.07
2018-12-30T06:15:18.243Z,8.63
2018-12-30T06:18:08.794Z,11.67
2018-12-30T06:20:58.958Z,8.30
2018-12-30T06:23:48.967Z,8.87
2018-12-30T06:26:39.191Z,8.67
2018-12-30T06:29:29.449Z,10.40
2018-12-30T06:32:19.591Z,12.03
2018-12-30T06:35:09.606Z,13.17
2018-12-30T06:38:00.513Z,13.37
2018-12-30T06:40:51.558Z,11.23
2018-12-30T06:43:41.799Z,11.83
2018-12-30T06:46:32.287Z,12.40
2018-12-30T06:49:22.490Z,10.13
2018-12-30T06:52:12.660Z,10.50
2018-12-30T06:55:02.780Z,14.40
2018-12-30T06:57:52.826Z,14.33
2018-12-30T07:00:43.299Z,11.90
2018-12-30T07:03:33.567Z,14.23
2018-12-30T07:06:23.855Z,16.77
2018-12-30T07:09:14.310Z,13.70
2018-12-30T07:12:05.110Z,16.50
2018-12-30T07:14:55.594Z,16.13
2018-12-30T07:17:46.426Z,15.80
2018-12-30T07:20:36.665Z,15.83
2018-12-30T07:23:27.106Z,15.83
2018-12-30T07:26:17.205Z,14.53
2018-12-30T07:29:07.636Z,19.23
2018-12-30T07:31:57.729Z,17.13
2018-12-30T07:34:48.095Z,16.97
2018-12-30T07:37:38.471Z,18.10
2018-12-30T07:40:28.711Z,16.83
2018-12-30T07:43:19.222Z,18.33
2018-12-30T07:46:09.551Z,18.33
2018-12-30T07:48:59.614Z,18.30
2018-12-30T07:51:49.958Z,17.90
2018-12-30T07:54:40.203Z,18.83
2018-12-30T07:57:30.255Z,18.97
2018-12-30T08:00:21.122Z,19.47
2018-12-30T08:03:11.216Z,21.53
2018-12-30T08:06:02.155Z,23.37
2018-12-30T08:08:52.667Z,24.40
2018-12-30T08:11:42.934Z,26.23
2018-12-30T08:14:33.910Z,26.00
2018-12-30T08:17:24.234Z,27.63
2018-12-30T08:20:14.578Z,26.73
2018-12-30T08:23:04.915Z,26.60
2018-12-30T08:25:55.227Z,24.47
2018-12-30T08:28:45.584Z,22.90
2018-12-30T08:31:36.271Z,23.53
2018-12-30T08:34:26.298Z,22.57
2018-12-30T08:37:16.710Z,21.60
2018-12-30T08:40:07.636Z,20.57
2018-12-30T08:42:57.850Z,21.80
2018-12-30T08:45:47.855Z,23.80
2018-12-30T08:48:38.242Z,24.57
2018-12-30T08:51:28.418Z,23.40
2018-12-30T08:54:18.763Z,28.90
2018-12-30T08:57:08.815Z,25.87
2018-12-30T08:59:59.278Z,25.03
2018-12-30T09:02:49.340Z,26.53
2018-12-30T09:05:40.250Z,29.60
2018-12-30T09:08:30.675Z,31.07
2018-12-30T09:11:21.236Z,23.70
2018-12-30T09:14:11.517Z,25.20
2018-12-30T09:17:01.466Z,24.90
2018-12-30T09:19:51.759Z,24.37
2018-12-30T09:22:42.165Z,27.43
2018-12-30T09:25:32.826Z,25.27
2018-12-30T09:28:23.214Z,26.10
2018-12-30T09:31:13.597Z,26.63
2018-12-30T09:34:03.995Z,26.37
2018-12-30T09:36:54.182Z,26.60
2018-12-30T09:39:44.499Z,26.67
2018-12-30T09:42:35.208Z,25.20
2018-12-30T09:45:25.567Z,26.43
2018-12-30T09:48:15.935Z,23.87
2018-12-30T09:51:06.058Z,24.57
2018-12-30T09:53:56.375Z,22.83
2018-12-30T09:56:46.483Z,23.47
2018-12-30T09:59:36.835Z,25.43
2018-12-30T10:02:26.982Z,20.47
2018-12-30T10:05:17.237Z,20.50
2018-12-30T10:08:08.443Z,21.50
2018-12-30T10:10:58.727Z,21.23
2018-12-30T10:13:48.959Z,23.03
2018-12-30T10:16:39.055Z,22.37
2018-12-30T10:19:29.431Z,22.37
2018-12-30T10:22:19.798Z,25.60
2018-12-30T10:25:11.564Z,24.73
2018-12-30T10:28:02.923Z,25.40
2018-12-30T10:30:53.023Z,24.80
2018-12-30T10:33:43.339Z,22.80
2018-12-30T10:36:33.646Z,21.83
2018-12-30T10:39:24.022Z,19.10
2018-12-30T10:42:14.518Z,18.60
2018-12-30T10:45:05.168Z,17.93
2018-12-30T10:47:55.507Z,17.77
2018-12-30T10:50:45.877Z,16.77
2018-12-30T10:53:36.060Z,16.17
2018-12-30T10:56:26.615Z,15.70
2018-12-30T10:59:17.019Z,14.80
2018-12-30T11:02:07.104Z,14.23
2018-12-30T11:04:57.486Z,14.70
2018-12-30T11:07:48.111Z,13.50
2018-12-30T11:10:38.370Z,14.07
2018-12-30T11:13:28.923Z,13.53
2018-12-30T11:16:19.497Z,13.50
2018-12-30T11:19:09.567Z,13.70
2018-12-30T11:22:00.346Z,13.00
2018-12-30T11:24:50.327Z,15.30
2018-12-30T11:27:41.312Z,14.03
2018-12-30T11:30:31.439Z,12.00
2018-12-30T11:33:21.483Z,13.03
2018-12-30T11:36:11.743Z,13.47
2018-12-30T11:39:02.145Z,13.47
2018-12-30T11:41:54.825Z,11.47
2018-12-30T11:44:45.661Z,12.20
2018-12-30T11:47:36.187Z,11.30
2018-12-30T11:50:26.469Z,11.03
2018-12-30T11:53:18.230Z,11.73
2018-12-30T11:56:08.597Z,11.43
2018-12-30T11:58:58.915Z,12.70
2018-12-30T12:01:49.239Z,12.93
2018-12-30T12:04:39.338Z,12.23
2018-12-30T12:07:29.522Z,13.13
2018-12-30T12:10:19.623Z,13.43
2018-12-30T12:13:09.783Z,13.07
2018-12-30T12:16:00.062Z,13.20
2018-12-30T12:18:50.834Z,13.70
2018-12-30T12:21:41.262Z,12.17
2018-12-30T12:24:31.280Z,11.43
2018-12-30T12:27:21.591Z,11.83
2018-12-30T12:30:12.102Z,13.20
2018-12-30T12:33:02.281Z,11.83
2018-12-30T12:35:52.380Z,12.57
2018-12-30T12:38:42.694Z,14.40
2018-12-30T12:41:32.723Z,13.60
2018-12-30T12:44:23.289Z,13.87
2018-12-30T12:47:13.798Z,14.33
2018-12-30T12:50:04.046Z,13.80
2018-12-30T12:52:54.088Z,12.70
2018-12-30T12:55:44.533Z,14.37
2018-12-30T12:58:34.538Z,14.37
2018-12-30T13:01:24.874Z,15.90
2018-12-30T13:04:15.007Z,14.57
2018-12-30T13:07:05.383Z,14.77
2018-12-30T13:09:56.219Z,14.97
2018-12-30T13:12:46.657Z,14.27
2018-12-30T13:15:37.498Z,15.47
2018-12-30T13:18:27.751Z,15.77
2018-12-30T13:21:18.682Z,16.03
2018-12-30T13:24:09.038Z,15.00
2018-12-30T13:26:59.138Z,15.43
2018-12-30T13:29:49.490Z,14.80
2018-12-30T13:32:40.994Z,15.47
2018-12-30T13:35:31.625Z,16.57
2018-12-30T13:38:28.319Z,17.40
2018-12-30T13:41:13.454Z,17.47
2018-12-30T13:44:03.791Z,16.60
2018-12-30T13:46:54.034Z,16.60
2018-12-30T13:49:44.519Z,17.23
2018-12-30T13:52:35.230Z,19.57
2018-12-30T13:55:25.271Z,17.27
2018-12-30T13:58:15.318Z,16.37
2018-12-30T14:01:06.142Z,17.47
2018-12-30T14:03:56.242Z,17.37
2018-12-30T14:06:46.978Z,16.57
2018-12-30T14:09:37.069Z,17.07
2018-12-30T14:12:27.166Z,17.23
2018-12-30T14:15:18.072Z,16.67
2018-12-30T14:18:08.162Z,17.60
2018-12-30T14:20:58.703Z,17.43
2018-12-30T14:23:49.231Z,17.67
2018-12-30T14:26:40.350Z,16.83
2018-12-30T14:29:30.694Z,17.47
2018-12-30T14:32:20.783Z,17.43
2018-12-30T14:35:11.217Z,17.67
2018-12-30T14:38:01.544Z,17.00
2018-12-30T14:40:51.606Z,16.63
2018-12-30T14:43:41.958Z,16.73
2018-12-30T14:46:34.816Z,17.33
2018-12-30T14:49:24.607Z,16.77
2018-12-30T14:52:14.760Z,17.83
2018-12-30T14:55:05.751Z,18.20
2018-12-30T14:57:56.850Z,16.57
2018-12-30T15:00:47.745Z,17.40
2018-12-30T15:03:38.274Z,17.07
2018-12-30T15:06:28.567Z,16.87
2018-12-30T15:09:18.870Z,17.37
2018-12-30T15:12:10.151Z,17.00
2018-12-30T15:15:00.295Z,17.37
2018-12-30T15:17:50.755Z,18.57
2018-12-30T15:20:40.747Z,16.90
2018-12-30T15:23:31.499Z,17.50
2018-12-30T15:26:22.411Z,17.03
2018-12-30T15:29:12.712Z,17.73
2018-12-30T15:32:03.235Z,19.10
2018-12-30T15:34:53.831Z,20.60
2018-12-30T15:37:44.150Z,23.93
2018-12-30T15:40:34.482Z,22.93
2018-12-30T15:43:24.811Z,20.57
2018-12-30T15:46:15.130Z,22.13
2018-12-30T15:49:05.469Z,19.20
2018-12-30T15:51:56.112Z,17.07
2018-12-30T15:54:46.415Z,17.30
2018-12-30T15:57:36.574Z,17.50
2018-12-30T16:00:27.135Z,19.70
2018-12-30T16:03:17.549Z,19.47
2018-12-30T16:06:07.517Z,22.33
2018-12-30T16:08:57.706Z,21.67
2018-12-30T16:11:47.823Z,21.47
2018-12-30T16:14:38.270Z,20.43
2018-12-30T16:17:28.658Z,19.07
2018-12-30T16:20:18.998Z,19.63
2018-12-30T16:23:09.495Z,20.13
2018-12-30T16:25:59.635Z,20.60
2018-12-30T16:28:50.051Z,21.77
2018-12-30T16:31:40.606Z,21.87
2018-12-30T16:34:31.174Z,22.47
2018-12-30T16:37:21.204Z,23.97
2018-12-30T16:40:11.270Z,23.70
2018-12-30T16:43:52.296Z,25.57
2018-12-30T16:46:42.627Z,25.77
2018-12-30T16:49:32.706Z,25.53
2018-12-30T16:52:22.790Z,26.60
2018-12-30T16:55:12.832Z,28.00
2018-12-30T16:58:03.239Z,27.97
2018-12-30T17:00:53.508Z,28.57
2018-12-30T17:03:44.178Z,28.57
2018-12-30T17:06:34.716Z,27.67
2018-12-30T17:09:25.115Z,29.47
2018-12-30T17:12:15.784Z,29.03
2018-12-30T17:15:07.002Z,28.17
2018-12-30T17:17:57.090Z,29.23
2018-12-30T17:20:47.188Z,29.20
2018-12-30T17:23:37.188Z,29.13
2018-12-30T17:26:27.295Z,36.30
2018-12-30T17:29:17.395Z,34.97
2018-12-30T17:32:08.270Z,28.77
2018-12-30T17:34:58.619Z,29.37
2018-12-30T17:37:49.250Z,28.03
2018-12-30T17:40:39.290Z,28.23
2018-12-30T17:43:29.663Z,28.13
2018-12-30T17:46:19.787Z,26.70
2018-12-30T17:49:10.600Z,25.33
2018-12-30T17:52:00.703Z,26.07
2018-12-30T17:54:51.139Z,25.43
2018-12-30T17:57:41.507Z,25.87
2018-12-30T18:00:31.879Z,23.27
2018-12-30T18:03:23.063Z,24.17
2018-12-30T18:06:13.286Z,23.07
2018-12-30T18:09:04.284Z,28.30
2018-12-30T18:11:55.431Z,29.67
2018-12-30T18:14:45.727Z,26.87
2018-12-30T18:17:41.379Z,24.47
2018-12-30T18:20:28.291Z,25.20
2018-12-30T18:23:19.654Z,26.23
2018-12-30T18:26:09.698Z,26.07
2018-12-30T18:29:00.462Z,26.97
2018-12-30T18:31:50.535Z,28.10
2018-12-30T18:34:40.565Z,26.90
2018-12-30T18:37:30.634Z,27.27
2018-12-30T18:40:21.119Z,28.60
2018-12-30T18:43:11.267Z,24.73
2018-12-30T18:46:01.583Z,26.57
2018-12-30T18:48:51.731Z,26.60
2018-12-30T18:51:41.958Z,26.87
2018-12-30T18:54:32.267Z,27.13
2018-12-30T18:57:23.058Z,27.57
2018-12-30T19:00:13.448Z,27.17
2018-12-30T19:03:03.531Z,25.57
2018-12-30T19:05:53.646Z,25.60
2018-12-30T19:08:44.151Z,27.40
2018-12-30T19:11:35.066Z,26.73
2018-12-30T19:14:25.671Z,26.27
2018-12-30T19:17:15.981Z,24.70
2018-12-30T19:20:06.601Z,23.70
2018-12-30T19:22:56.663Z,25.37
2018-12-30T19:25:47.191Z,25.17
2018-12-30T19:28:37.868Z,24.17
2018-12-30T19:31:27.984Z,23.77
2018-12-30T19:34:18.129Z,26.13
2018-12-30T19:37:08.234Z,26.10
2018-12-30T19:39:58.428Z,25.27
2018-12-30T19:42:49.046Z,26.00
2018-12-30T19:45:39.260Z,24.40
2018-12-30T19:48:29.455Z,27.00
2018-12-30T19:51:19.590Z,27.00
2018-12-30T19:54:09.986Z,26.43
2018-12-30T19:57:00.317Z,27.80
2018-12-30T19:59:50.403Z,27.10
2018-12-30T20:02:40.796Z,27.10
2018-12-30T20:05:31.195Z,30.87
2018-12-30T20:08:21.779Z,28.00
2018-12-30T20:11:12.363Z,32.00
2018-12-30T20:14:02.538Z,27.03
2018-12-30T20:16:52.826Z,28.90
2018-12-30T20:19:42.903Z,27.50
2018-12-30T20:22:32.957Z,27.87
2018-12-30T20:25:23.259Z,27.77
2018-12-30T20:28:13.651Z,27.87
2018-12-30T20:31:04.123Z,27.70
2018-12-30T20:33:54.522Z,28.00
2018-12-30T20:36:45.019Z,28.73
2018-12-30T20:39:35.236Z,27.37
2018-12-30T20:42:26.122Z,29.23
2018-12-30T20:45:16.399Z,28.40
2018-12-30T20:48:07.867Z,26.90
2018-12-30T20:50:58.041Z,27.70
2018-12-30T20:53:48.374Z,29.03
2018-12-30T20:56:38.467Z,27.40
2018-12-30T20:59:28.503Z,26.27
2018-12-30T21:02:18.923Z,27.13
2018-12-30T21:05:09.834Z,26.60
2018-12-30T21:08:00.656Z,26.37
2018-12-30T21:10:51.194Z,25.37
2018-12-30T21:13:41.727Z,24.97
2018-12-30T21:16:31.759Z,25.30
2018-12-30T21:19:21.830Z,24.63
2018-12-30T21:22:12.156Z,25.87
2018-12-30T21:25:02.530Z,25.03
2018-12-30T21:27:52.587Z,24.07
2018-12-30T21:30:43.032Z,23.23
2018-12-30T21:33:33.135Z,24.67
2018-12-30T21:36:24.111Z,23.17
2018-12-30T21:39:15.199Z,23.40
2018-12-30T21:42:05.810Z,21.63
2018-12-30T21:44:55.954Z,22.10
2018-12-30T21:47:46.791Z,22.93
2018-12-30T21:50:37.031Z,23.23
2018-12-30T21:53:27.463Z,22.00
2018-12-30T21:56:17.832Z,21.53
2018-12-30T21:59:08.116Z,21.43
2018-12-30T22:01:58.138Z,21.83
2018-12-30T22:04:48.255Z,20.87
2018-12-30T22:07:38.589Z,21.93
2018-12-30T22:10:29.418Z,20.17
2018-12-30T22:13:19.983Z,21.13
2018-12-30T22:16:10.438Z,21.00
2018-12-30T22:19:00.720Z,21.17
2018-12-30T22:21:50.766Z,22.13
2018-12-30T22:24:41.054Z,22.27
2018-12-30T22:27:31.390Z,22.40
2018-12-30T22:30:21.500Z,23.43
2018-12-30T22:33:11.906Z,23.83
2018-12-30T22:36:02.267Z,24.33
2018-12-30T22:38:52.856Z,25.70
2018-12-30T22:41:43.507Z,26.77
2018-12-30T22:44:34.038Z,26.00
2018-12-30T22:47:24.355Z,26.27
2018-12-30T22:50:14.763Z,28.40
2018-12-30T22:53:04.966Z,27.60
2018-12-30T22:55:55.299Z,28.50
2018-12-30T22:58:45.822Z,30.43
2018-12-30T23:01:39.794Z,31.03
2018-12-30T23:04:30.615Z,31.80
2018-12-30T23:07:20.735Z,30.60
2018-12-30T23:10:10.806Z,30.90
2018-12-30T23:13:00.950Z,30.93
2018-12-30T23:15:51.382Z,31.97
2018-12-30T23:18:42.471Z,30.47
2018-12-30T23:21:33.291Z,31.77
2018-12-30T23:24:23.382Z,30.83
2018-12-30T23:27:13.774Z,31.57
2018-12-30T23:30:04.108Z,32.63
2018-12-30T23:32:54.483Z,30.33
2018-12-30T23:35:44.866Z,31.83
2018-12-30T23:38:35.182Z,33.53
2018-12-30T23:41:25.187Z,32.50
2018-12-30T23:44:15.498Z,33.30
2018-12-30T23:47:06.031Z,31.03
2018-12-30T23:49:56.210Z,32.50
2018-12-30T23:52:46.528Z,32.67
2018-12-30T23:55:37.380Z,32.50
2018-12-30T23:58:27.700Z,31.97
